sensor_id;sensor_type;location;lat;lon;timestamp;P1;durP1;ratioP1;P2;durP2;ratioP2
23496;SDS011;11925;48.122;11.560;2023-08-01T00:02:36;4.63;;;3.20;;
23496;SDS011;11925;48.122;11.560;2023-08-01T00:05:05;5.75;;;2.95;;
23496;SDS011;11925;48.122;11.560;2023-08-01T00:07:35;5.43;;;3.10;;
23496;SDS011;11925;48.122;11.560;2023-08-01T00:10:04;6.57;;;3.33;;
23496;SDS011;11925;48.122;11.560;2023-08-01T00:12:33;5.93;;;3.25;;
23496;SDS011;11925;48.122;11.560;2023-08-01T00:15:02;5.28;;;3.20;;
23496;SDS011;11925;48.122;11.560;2023-08-01T00:17:30;4.60;;;3.00;;
23496;SDS011;11925;48.122;11.560;2023-08-01T00:19:59;5.47;;;3.22;;
23496;SDS011;11925;48.122;11.560;2023-08-01T00:22:27;6.05;;;3.05;;
23496;SDS011;11925;48.122;11.560;2023-08-01T00:24:57;6.30;;;3.08;;
23496;SDS011;11925;48.122;11.560;2023-08-01T00:27:25;4.22;;;2.80;;
23496;SDS011;11925;48.122;11.560;2023-08-01T00:30:06;5.55;;;2.90;;
23496;SDS011;11925;48.122;11.560;2023-08-01T00:32:35;4.32;;;2.97;;
23496;SDS011;11925;48.122;11.560;2023-08-01T00:35:04;4.10;;;2.92;;
23496;SDS011;11925;48.122;11.560;2023-08-01T00:37:33;4.68;;;2.67;;
23496;SDS011;11925;48.122;11.560;2023-08-01T00:40:03;3.63;;;2.63;;
23496;SDS011;11925;48.122;11.560;2023-08-01T00:42:32;4.20;;;2.72;;
23496;SDS011;11925;48.122;11.560;2023-08-01T00:45:04;4.28;;;2.67;;
23496;SDS011;11925;48.122;11.560;2023-08-01T00:47:33;5.28;;;2.90;;
23496;SDS011;11925;48.122;11.560;2023-08-01T00:50:02;5.15;;;2.60;;
23496;SDS011;11925;48.122;11.560;2023-08-01T00:52:31;4.22;;;3.08;;
23496;SDS011;11925;48.122;11.560;2023-08-01T00:54:59;4.28;;;2.83;;
23496;SDS011;11925;48.122;11.560;2023-08-01T00:57:29;4.00;;;2.78;;
23496;SDS011;11925;48.122;11.560;2023-08-01T00:59:58;4.78;;;2.85;;
23496;SDS011;11925;48.122;11.560;2023-08-01T01:02:26;5.25;;;2.72;;
23496;SDS011;11925;48.122;11.560;2023-08-01T01:04:55;4.05;;;2.60;;
23496;SDS011;11925;48.122;11.560;2023-08-01T01:07:23;5.47;;;2.50;;
23496;SDS011;11925;48.122;11.560;2023-08-01T01:09:52;5.57;;;2.92;;
23496;SDS011;11925;48.122;11.560;2023-08-01T01:12:20;5.10;;;2.58;;
23496;SDS011;11925;48.122;11.560;2023-08-01T01:14:50;4.88;;;2.75;;
23496;SDS011;11925;48.122;11.560;2023-08-01T01:17:19;4.18;;;2.63;;
23496;SDS011;11925;48.122;11.560;2023-08-01T01:19:47;4.28;;;2.58;;
23496;SDS011;11925;48.122;11.560;2023-08-01T01:22:17;3.45;;;2.38;;
23496;SDS011;11925;48.122;11.560;2023-08-01T01:24:46;5.53;;;2.58;;
23496;SDS011;11925;48.122;11.560;2023-08-01T01:27:16;4.70;;;2.97;;
23496;SDS011;11925;48.122;11.560;2023-08-01T01:29:47;5.13;;;2.65;;
23496;SDS011;11925;48.122;11.560;2023-08-01T01:32:17;4.95;;;3.05;;
23496;SDS011;11925;48.122;11.560;2023-08-01T01:34:46;6.70;;;2.83;;
23496;SDS011;11925;48.122;11.560;2023-08-01T01:37:16;4.78;;;2.58;;
23496;SDS011;11925;48.122;11.560;2023-08-01T01:39:44;3.97;;;2.63;;
23496;SDS011;11925;48.122;11.560;2023-08-01T01:42:13;6.80;;;2.60;;
23496;SDS011;11925;48.122;11.560;2023-08-01T01:44:41;5.18;;;2.78;;
23496;SDS011;11925;48.122;11.560;2023-08-01T01:47:09;5.93;;;2.90;;
23496;SDS011;11925;48.122;11.560;2023-08-01T01:49:38;4.28;;;2.50;;
23496;SDS011;11925;48.122;11.560;2023-08-01T01:52:06;6.57;;;2.95;;
23496;SDS011;11925;48.122;11.560;2023-08-01T01:54:36;4.15;;;3.05;;
23496;SDS011;11925;48.122;11.560;2023-08-01T01:57:04;5.72;;;2.70;;
23496;SDS011;11925;48.122;11.560;2023-08-01T01:59:33;4.57;;;2.97;;
23496;SDS011;11925;48.122;11.560;2023-08-01T02:02:01;4.78;;;2.72;;
23496;SDS011;11925;48.122;11.560;2023-08-01T02:04:32;4.82;;;3.13;;
23496;SDS011;11925;48.122;11.560;2023-08-01T02:07:00;3.22;;;2.40;;
23496;SDS011;11925;48.122;11.560;2023-08-01T02:09:29;4.47;;;2.78;;
23496;SDS011;11925;48.122;11.560;2023-08-01T02:11:59;4.15;;;2.60;;
23496;SDS011;11925;48.122;11.560;2023-08-01T02:14:27;5.70;;;2.88;;
23496;SDS011;11925;48.122;11.560;2023-08-01T02:16:56;5.78;;;2.83;;
23496;SDS011;11925;48.122;11.560;2023-08-01T02:19:24;4.30;;;2.55;;
23496;SDS011;11925;48.122;11.560;2023-08-01T02:21:53;4.63;;;2.80;;
23496;SDS011;11925;48.122;11.560;2023-08-01T02:24:21;3.85;;;2.45;;
23496;SDS011;11925;48.122;11.560;2023-08-01T02:26:50;4.35;;;2.90;;
23496;SDS011;11925;48.122;11.560;2023-08-01T02:29:22;4.72;;;2.92;;
23496;SDS011;11925;48.122;11.560;2023-08-01T02:31:50;4.95;;;3.00;;
23496;SDS011;11925;48.122;11.560;2023-08-01T02:34:18;5.07;;;3.15;;
23496;SDS011;11925;48.122;11.560;2023-08-01T02:36:47;4.60;;;2.97;;
23496;SDS011;11925;48.122;11.560;2023-08-01T02:39:15;5.50;;;2.95;;
23496;SDS011;11925;48.122;11.560;2023-08-01T02:41:43;6.05;;;2.72;;
23496;SDS011;11925;48.122;11.560;2023-08-01T02:44:12;5.68;;;3.22;;
23496;SDS011;11925;48.122;11.560;2023-08-01T02:46:42;4.38;;;2.75;;
23496;SDS011;11925;48.122;11.560;2023-08-01T02:49:10;4.90;;;2.72;;
23496;SDS011;11925;48.122;11.560;2023-08-01T02:51:38;4.47;;;3.00;;
23496;SDS011;11925;48.122;11.560;2023-08-01T02:54:06;8.70;;;2.90;;
23496;SDS011;11925;48.122;11.560;2023-08-01T02:56:35;4.90;;;3.00;;
23496;SDS011;11925;48.122;11.560;2023-08-01T02:59:07;4.55;;;2.80;;
23496;SDS011;11925;48.122;11.560;2023-08-01T03:01:37;5.20;;;3.65;;
23496;SDS011;11925;48.122;11.560;2023-08-01T03:04:07;5.13;;;2.90;;
23496;SDS011;11925;48.122;11.560;2023-08-01T03:06:38;5.35;;;2.78;;
23496;SDS011;11925;48.122;11.560;2023-08-01T03:09:07;5.32;;;2.90;;
23496;SDS011;11925;48.122;11.560;2023-08-01T03:11:35;5.15;;;2.55;;
23496;SDS011;11925;48.122;11.560;2023-08-01T03:14:04;4.82;;;2.90;;
23496;SDS011;11925;48.122;11.560;2023-08-01T03:16:32;5.72;;;3.05;;
23496;SDS011;11925;48.122;11.560;2023-08-01T03:19:01;4.63;;;2.45;;
23496;SDS011;11925;48.122;11.560;2023-08-01T03:21:33;5.43;;;3.10;;
23496;SDS011;11925;48.122;11.560;2023-08-01T03:24:02;4.72;;;3.10;;
23496;SDS011;11925;48.122;11.560;2023-08-01T03:26:35;4.18;;;2.30;;
23496;SDS011;11925;48.122;11.560;2023-08-01T03:29:04;4.60;;;3.15;;
23496;SDS011;11925;48.122;11.560;2023-08-01T03:31:32;4.05;;;2.70;;
23496;SDS011;11925;48.122;11.560;2023-08-01T03:34:01;4.68;;;2.95;;
23496;SDS011;11925;48.122;11.560;2023-08-01T03:36:30;4.20;;;2.75;;
23496;SDS011;11925;48.122;11.560;2023-08-01T03:39:01;5.20;;;2.85;;
23496;SDS011;11925;48.122;11.560;2023-08-01T03:41:31;6.88;;;3.38;;
23496;SDS011;11925;48.122;11.560;2023-08-01T03:43:59;5.53;;;2.67;;
23496;SDS011;11925;48.122;11.560;2023-08-01T03:46:28;4.30;;;2.70;;
23496;SDS011;11925;48.122;11.560;2023-08-01T03:48:57;6.00;;;3.13;;
23496;SDS011;11925;48.122;11.560;2023-08-01T03:51:25;6.15;;;3.28;;
23496;SDS011;11925;48.122;11.560;2023-08-01T03:53:54;5.32;;;3.17;;
23496;SDS011;11925;48.122;11.560;2023-08-01T03:56:40;4.60;;;3.13;;
23496;SDS011;11925;48.122;11.560;2023-08-01T03:59:10;6.47;;;3.33;;
23496;SDS011;11925;48.122;11.560;2023-08-01T04:01:39;6.03;;;2.97;;
23496;SDS011;11925;48.122;11.560;2023-08-01T04:04:08;6.22;;;2.90;;
23496;SDS011;11925;48.122;11.560;2023-08-01T04:06:37;4.93;;;3.10;;
23496;SDS011;11925;48.122;11.560;2023-08-01T04:09:07;5.22;;;3.25;;
23496;SDS011;11925;48.122;11.560;2023-08-01T04:11:35;5.15;;;2.95;;
23496;SDS011;11925;48.122;11.560;2023-08-01T04:14:05;5.78;;;3.35;;
23496;SDS011;11925;48.122;11.560;2023-08-01T04:16:34;4.82;;;2.97;;
23496;SDS011;11925;48.122;11.560;2023-08-01T04:19:03;5.30;;;3.13;;
23496;SDS011;11925;48.122;11.560;2023-08-01T04:21:32;8.27;;;3.70;;
23496;SDS011;11925;48.122;11.560;2023-08-01T04:24:00;4.82;;;3.40;;
23496;SDS011;11925;48.122;11.560;2023-08-01T04:26:29;5.60;;;3.33;;
23496;SDS011;11925;48.122;11.560;2023-08-01T04:28:58;7.57;;;3.42;;
23496;SDS011;11925;48.122;11.560;2023-08-01T04:31:28;6.65;;;3.70;;
23496;SDS011;11925;48.122;11.560;2023-08-01T04:33:56;7.15;;;3.47;;
23496;SDS011;11925;48.122;11.560;2023-08-01T04:36:25;6.53;;;3.33;;
23496;SDS011;11925;48.122;11.560;2023-08-01T04:38:53;6.03;;;3.58;;
23496;SDS011;11925;48.122;11.560;2023-08-01T04:41:22;7.40;;;3.47;;
23496;SDS011;11925;48.122;11.560;2023-08-01T04:43:51;8.90;;;3.50;;
23496;SDS011;11925;48.122;11.560;2023-08-01T04:46:19;7.18;;;3.80;;
23496;SDS011;11925;48.122;11.560;2023-08-01T04:48:49;7.88;;;3.60;;
23496;SDS011;11925;48.122;11.560;2023-08-01T04:51:18;7.93;;;3.72;;
23496;SDS011;11925;48.122;11.560;2023-08-01T04:53:46;6.38;;;3.80;;
23496;SDS011;11925;48.122;11.560;2023-08-01T04:56:15;7.30;;;3.22;;
23496;SDS011;11925;48.122;11.560;2023-08-01T04:58:44;5.47;;;3.40;;
23496;SDS011;11925;48.122;11.560;2023-08-01T05:01:12;5.72;;;3.47;;
23496;SDS011;11925;48.122;11.560;2023-08-01T05:03:41;6.53;;;3.70;;
23496;SDS011;11925;48.122;11.560;2023-08-01T05:06:11;6.28;;;3.83;;
23496;SDS011;11925;48.122;11.560;2023-08-01T05:08:40;8.38;;;3.60;;
23496;SDS011;11925;48.122;11.560;2023-08-01T05:11:08;8.13;;;3.95;;
23496;SDS011;11925;48.122;11.560;2023-08-01T05:13:37;7.05;;;3.78;;
23496;SDS011;11925;48.122;11.560;2023-08-01T05:16:06;8.40;;;4.45;;
23496;SDS011;11925;48.122;11.560;2023-08-01T05:18:34;6.75;;;4.00;;
23496;SDS011;11925;48.122;11.560;2023-08-01T05:21:03;7.18;;;3.60;;
23496;SDS011;11925;48.122;11.560;2023-08-01T05:23:33;8.75;;;3.83;;
23496;SDS011;11925;48.122;11.560;2023-08-01T05:26:01;6.75;;;3.78;;
23496;SDS011;11925;48.122;11.560;2023-08-01T05:28:30;8.70;;;4.25;;
23496;SDS011;11925;48.122;11.560;2023-08-01T05:30:59;6.40;;;3.97;;
23496;SDS011;11925;48.122;11.560;2023-08-01T05:33:27;8.30;;;4.15;;
23496;SDS011;11925;48.122;11.560;2023-08-01T05:35:56;9.07;;;4.03;;
23496;SDS011;11925;48.122;11.560;2023-08-01T05:38:24;6.95;;;4.15;;
23496;SDS011;11925;48.122;11.560;2023-08-01T05:40:54;7.82;;;3.88;;
23496;SDS011;11925;48.122;11.560;2023-08-01T05:43:24;6.38;;;3.47;;
23496;SDS011;11925;48.122;11.560;2023-08-01T05:45:53;5.85;;;3.78;;
23496;SDS011;11925;48.122;11.560;2023-08-01T05:48:22;5.70;;;3.47;;
23496;SDS011;11925;48.122;11.560;2023-08-01T05:50:51;6.63;;;3.97;;
23496;SDS011;11925;48.122;11.560;2023-08-01T05:53:22;7.13;;;3.95;;
23496;SDS011;11925;48.122;11.560;2023-08-01T05:55:51;7.03;;;4.25;;
23496;SDS011;11925;48.122;11.560;2023-08-01T05:58:21;7.75;;;3.80;;
23496;SDS011;11925;48.122;11.560;2023-08-01T06:00:50;7.10;;;4.00;;
23496;SDS011;11925;48.122;11.560;2023-08-01T06:03:18;6.78;;;3.83;;
23496;SDS011;11925;48.122;11.560;2023-08-01T06:05:47;7.93;;;4.03;;
23496;SDS011;11925;48.122;11.560;2023-08-01T06:08:15;6.85;;;3.60;;
23496;SDS011;11925;48.122;11.560;2023-08-01T06:10:45;7.63;;;3.80;;
23496;SDS011;11925;48.122;11.560;2023-08-01T06:13:13;6.72;;;3.75;;
23496;SDS011;11925;48.122;11.560;2023-08-01T06:15:43;7.20;;;3.70;;
23496;SDS011;11925;48.122;11.560;2023-08-01T06:18:12;6.32;;;3.88;;
23496;SDS011;11925;48.122;11.560;2023-08-01T06:20:41;7.40;;;3.53;;
23496;SDS011;11925;48.122;11.560;2023-08-01T06:23:09;6.55;;;3.80;;
23496;SDS011;11925;48.122;11.560;2023-08-01T06:25:38;6.93;;;3.67;;
23496;SDS011;11925;48.122;11.560;2023-08-01T06:28:07;6.25;;;3.50;;
23496;SDS011;11925;48.122;11.560;2023-08-01T06:30:35;5.35;;;3.30;;
23496;SDS011;11925;48.122;11.560;2023-08-01T06:33:05;5.53;;;3.22;;
23496;SDS011;11925;48.122;11.560;2023-08-01T06:35:34;6.90;;;3.10;;
23496;SDS011;11925;48.122;11.560;2023-08-01T06:38:02;8.10;;;3.35;;
23496;SDS011;11925;48.122;11.560;2023-08-01T06:40:31;7.00;;;3.65;;
23496;SDS011;11925;48.122;11.560;2023-08-01T06:43:00;5.82;;;3.47;;
23496;SDS011;11925;48.122;11.560;2023-08-01T06:45:28;7.10;;;3.58;;
23496;SDS011;11925;48.122;11.560;2023-08-01T06:47:57;6.45;;;3.95;;
23496;SDS011;11925;48.122;11.560;2023-08-01T06:50:27;5.68;;;3.25;;
23496;SDS011;11925;48.122;11.560;2023-08-01T06:52:56;6.47;;;3.55;;
23496;SDS011;11925;48.122;11.560;2023-08-01T06:55:24;6.00;;;3.60;;
23496;SDS011;11925;48.122;11.560;2023-08-01T06:57:53;5.97;;;3.35;;
23496;SDS011;11925;48.122;11.560;2023-08-01T07:00:21;4.63;;;3.03;;
23496;SDS011;11925;48.122;11.560;2023-08-01T07:02:50;5.28;;;3.03;;
23496;SDS011;11925;48.122;11.560;2023-08-01T07:05:19;4.85;;;3.20;;
23496;SDS011;11925;48.122;11.560;2023-08-01T07:07:49;6.28;;;3.38;;
23496;SDS011;11925;48.122;11.560;2023-08-01T07:10:18;6.05;;;3.20;;
23496;SDS011;11925;48.122;11.560;2023-08-01T07:12:46;5.45;;;3.10;;
23496;SDS011;11925;48.122;11.560;2023-08-01T07:15:15;5.78;;;2.90;;
23496;SDS011;11925;48.122;11.560;2023-08-01T07:17:44;4.95;;;3.03;;
23496;SDS011;11925;48.122;11.560;2023-08-01T07:20:13;6.93;;;3.13;;
23496;SDS011;11925;48.122;11.560;2023-08-01T07:22:41;6.07;;;3.35;;
23496;SDS011;11925;48.122;11.560;2023-08-01T07:25:11;4.18;;;3.10;;
23496;SDS011;11925;48.122;11.560;2023-08-01T07:27:40;4.68;;;3.13;;
23496;SDS011;11925;48.122;11.560;2023-08-01T07:30:09;3.75;;;2.70;;
23496;SDS011;11925;48.122;11.560;2023-08-01T07:32:38;5.32;;;2.88;;
23496;SDS011;11925;48.122;11.560;2023-08-01T07:35:08;5.82;;;2.97;;
23496;SDS011;11925;48.122;11.560;2023-08-01T07:37:37;6.20;;;3.10;;
23496;SDS011;11925;48.122;11.560;2023-08-01T07:40:06;5.30;;;3.65;;
23496;SDS011;11925;48.122;11.560;2023-08-01T07:42:36;5.78;;;3.47;;
23496;SDS011;11925;48.122;11.560;2023-08-01T07:45:05;5.75;;;3.00;;
23496;SDS011;11925;48.122;11.560;2023-08-01T07:47:34;4.85;;;3.03;;
23496;SDS011;11925;48.122;11.560;2023-08-01T07:50:03;5.53;;;3.60;;
23496;SDS011;11925;48.122;11.560;2023-08-01T07:52:32;9.75;;;4.50;;
23496;SDS011;11925;48.122;11.560;2023-08-01T07:55:00;9.50;;;4.15;;
23496;SDS011;11925;48.122;11.560;2023-08-01T07:57:29;6.88;;;3.70;;
23496;SDS011;11925;48.122;11.560;2023-08-01T07:59:59;8.00;;;3.83;;
23496;SDS011;11925;48.122;11.560;2023-08-01T08:02:38;10.13;;;3.38;;
23496;SDS011;11925;48.122;11.560;2023-08-01T08:05:07;9.07;;;3.47;;
23496;SDS011;11925;48.122;11.560;2023-08-01T08:07:36;4.70;;;2.83;;
23496;SDS011;11925;48.122;11.560;2023-08-01T08:10:05;8.52;;;3.45;;
23496;SDS011;11925;48.122;11.560;2023-08-01T08:12:34;5.68;;;3.05;;
23496;SDS011;11925;48.122;11.560;2023-08-01T08:15:04;5.65;;;3.10;;
23496;SDS011;11925;48.122;11.560;2023-08-01T08:17:33;7.38;;;3.35;;
23496;SDS011;11925;48.122;11.560;2023-08-01T08:20:02;5.47;;;3.33;;
23496;SDS011;11925;48.122;11.560;2023-08-01T08:22:32;5.60;;;3.05;;
23496;SDS011;11925;48.122;11.560;2023-08-01T08:25:01;6.63;;;3.20;;
23496;SDS011;11925;48.122;11.560;2023-08-01T08:27:30;5.65;;;3.40;;
23496;SDS011;11925;48.122;11.560;2023-08-01T08:29:59;6.85;;;2.85;;
23496;SDS011;11925;48.122;11.560;2023-08-01T08:32:29;5.53;;;3.00;;
23496;SDS011;11925;48.122;11.560;2023-08-01T08:34:57;5.78;;;3.42;;
23496;SDS011;11925;48.122;11.560;2023-08-01T08:37:26;4.85;;;2.90;;
23496;SDS011;11925;48.122;11.560;2023-08-01T08:39:55;5.20;;;3.00;;
23496;SDS011;11925;48.122;11.560;2023-08-01T08:42:23;5.82;;;3.33;;
23496;SDS011;11925;48.122;11.560;2023-08-01T08:44:54;8.50;;;3.70;;
23496;SDS011;11925;48.122;11.560;2023-08-01T08:47:24;8.20;;;3.10;;
23496;SDS011;11925;48.122;11.560;2023-08-01T08:49:55;5.68;;;3.17;;
23496;SDS011;11925;48.122;11.560;2023-08-01T08:52:24;7.18;;;4.15;;
23496;SDS011;11925;48.122;11.560;2023-08-01T08:54:53;5.57;;;2.90;;
23496;SDS011;11925;48.122;11.560;2023-08-01T08:57:23;6.35;;;3.20;;
23496;SDS011;11925;48.122;11.560;2023-08-01T08:59:52;7.85;;;3.13;;
23496;SDS011;11925;48.122;11.560;2023-08-01T09:02:20;5.97;;;3.30;;
23496;SDS011;11925;48.122;11.560;2023-08-01T09:04:49;6.05;;;3.20;;
23496;SDS011;11925;48.122;11.560;2023-08-01T09:07:19;7.32;;;3.20;;
23496;SDS011;11925;48.122;11.560;2023-08-01T09:09:52;10.77;;;3.83;;
23496;SDS011;11925;48.122;11.560;2023-08-01T09:12:20;6.10;;;3.40;;
23496;SDS011;11925;48.122;11.560;2023-08-01T09:14:49;8.85;;;3.50;;
23496;SDS011;11925;48.122;11.560;2023-08-01T09:17:18;9.35;;;3.92;;
23496;SDS011;11925;48.122;11.560;2023-08-01T09:19:47;5.93;;;3.33;;
23496;SDS011;11925;48.122;11.560;2023-08-01T09:22:16;7.65;;;3.80;;
23496;SDS011;11925;48.122;11.560;2023-08-01T09:24:52;8.65;;;4.00;;
23496;SDS011;11925;48.122;11.560;2023-08-01T09:27:21;6.22;;;3.50;;
23496;SDS011;11925;48.122;11.560;2023-08-01T09:29:50;7.82;;;3.88;;
23496;SDS011;11925;48.122;11.560;2023-08-01T09:32:19;9.50;;;3.75;;
23496;SDS011;11925;48.122;11.560;2023-08-01T09:34:47;5.82;;;3.63;;
23496;SDS011;11925;48.122;11.560;2023-08-01T09:37:26;7.70;;;3.50;;
23496;SDS011;11925;48.122;11.560;2023-08-01T09:39:56;6.95;;;3.97;;
23496;SDS011;11925;48.122;11.560;2023-08-01T09:42:25;6.38;;;3.20;;
23496;SDS011;11925;48.122;11.560;2023-08-01T09:44:53;7.97;;;3.92;;
23496;SDS011;11925;48.122;11.560;2023-08-01T09:47:22;8.20;;;4.10;;
23496;SDS011;11925;48.122;11.560;2023-08-01T09:49:51;7.05;;;3.95;;
23496;SDS011;11925;48.122;11.560;2023-08-01T09:52:26;5.65;;;3.38;;
23496;SDS011;11925;48.122;11.560;2023-08-01T09:54:55;6.57;;;3.65;;
23496;SDS011;11925;48.122;11.560;2023-08-01T09:57:25;7.25;;;3.67;;
23496;SDS011;11925;48.122;11.560;2023-08-01T09:59:57;8.65;;;3.75;;
23496;SDS011;11925;48.122;11.560;2023-08-01T10:02:26;6.47;;;3.60;;
23496;SDS011;11925;48.122;11.560;2023-08-01T10:04:58;7.35;;;3.55;;
23496;SDS011;11925;48.122;11.560;2023-08-01T10:07:28;6.70;;;3.65;;
23496;SDS011;11925;48.122;11.560;2023-08-01T10:09:58;6.13;;;3.45;;
23496;SDS011;11925;48.122;11.560;2023-08-01T10:12:28;5.00;;;3.20;;
23496;SDS011;11925;48.122;11.560;2023-08-01T10:14:58;6.03;;;3.35;;
23496;SDS011;11925;48.122;11.560;2023-08-01T10:17:27;5.70;;;3.13;;
23496;SDS011;11925;48.122;11.560;2023-08-01T10:19:57;5.57;;;3.25;;
23496;SDS011;11925;48.122;11.560;2023-08-01T10:22:26;5.43;;;3.00;;
23496;SDS011;11925;48.122;11.560;2023-08-01T10:24:55;6.70;;;3.78;;
23496;SDS011;11925;48.122;11.560;2023-08-01T10:27:25;7.38;;;2.90;;
23496;SDS011;11925;48.122;11.560;2023-08-01T10:29:58;7.00;;;2.83;;
23496;SDS011;11925;48.122;11.560;2023-08-01T10:32:31;6.50;;;3.13;;
23496;SDS011;11925;48.122;11.560;2023-08-01T10:35:00;7.45;;;3.28;;
23496;SDS011;11925;48.122;11.560;2023-08-01T10:37:38;7.20;;;3.75;;
23496;SDS011;11925;48.122;11.560;2023-08-01T10:40:07;5.00;;;3.40;;
23496;SDS011;11925;48.122;11.560;2023-08-01T10:42:39;6.30;;;2.83;;
23496;SDS011;11925;48.122;11.560;2023-08-01T10:45:19;5.72;;;3.13;;
23496;SDS011;11925;48.122;11.560;2023-08-01T10:47:48;5.32;;;3.33;;
23496;SDS011;11925;48.122;11.560;2023-08-01T10:50:17;6.18;;;3.15;;
23496;SDS011;11925;48.122;11.560;2023-08-01T10:52:46;4.57;;;2.90;;
23496;SDS011;11925;48.122;11.560;2023-08-01T10:55:15;6.30;;;3.33;;
23496;SDS011;11925;48.122;11.560;2023-08-01T10:57:47;5.40;;;3.08;;
23496;SDS011;11925;48.122;11.560;2023-08-01T11:00:17;5.93;;;3.05;;
23496;SDS011;11925;48.122;11.560;2023-08-01T11:02:48;4.32;;;2.72;;
23496;SDS011;11925;48.122;11.560;2023-08-01T11:05:17;5.45;;;2.88;;
23496;SDS011;11925;48.122;11.560;2023-08-01T11:07:53;6.80;;;3.08;;
23496;SDS011;11925;48.122;11.560;2023-08-01T11:10:23;7.45;;;3.00;;
23496;SDS011;11925;48.122;11.560;2023-08-01T11:12:52;6.80;;;2.53;;
23496;SDS011;11925;48.122;11.560;2023-08-01T11:15:22;6.25;;;2.60;;
23496;SDS011;11925;48.122;11.560;2023-08-01T11:17:51;10.35;;;3.15;;
23496;SDS011;11925;48.122;11.560;2023-08-01T11:20:21;8.95;;;2.58;;
23496;SDS011;11925;48.122;11.560;2023-08-01T11:22:50;6.40;;;2.22;;
23496;SDS011;11925;48.122;11.560;2023-08-01T11:25:19;5.22;;;2.10;;
23496;SDS011;11925;48.122;11.560;2023-08-01T11:27:49;5.10;;;1.90;;
23496;SDS011;11925;48.122;11.560;2023-08-01T11:30:17;5.35;;;2.50;;
23496;SDS011;11925;48.122;11.560;2023-08-01T11:32:47;7.40;;;2.50;;
23496;SDS011;11925;48.122;11.560;2023-08-01T11:35:35;4.50;;;2.00;;
23496;SDS011;11925;48.122;11.560;2023-08-01T11:38:04;10.00;;;2.20;;
23496;SDS011;11925;48.122;11.560;2023-08-01T11:40:33;8.25;;;2.00;;
23496;SDS011;11925;48.122;11.560;2023-08-01T11:43:02;7.07;;;2.10;;
23496;SDS011;11925;48.122;11.560;2023-08-01T11:45:31;8.02;;;2.50;;
23496;SDS011;11925;48.122;11.560;2023-08-01T11:48:01;3.97;;;1.70;;
23496;SDS011;11925;48.122;11.560;2023-08-01T11:50:30;4.68;;;2.15;;
23496;SDS011;11925;48.122;11.560;2023-08-01T11:52:58;5.10;;;2.00;;
23496;SDS011;11925;48.122;11.560;2023-08-01T11:55:27;7.07;;;2.17;;
23496;SDS011;11925;48.122;11.560;2023-08-01T11:57:56;4.57;;;2.20;;
23496;SDS011;11925;48.122;11.560;2023-08-01T12:00:26;6.32;;;2.30;;
23496;SDS011;11925;48.122;11.560;2023-08-01T12:03:05;4.22;;;2.05;;
23496;SDS011;11925;48.122;11.560;2023-08-01T12:05:39;9.77;;;3.17;;
23496;SDS011;11925;48.122;11.560;2023-08-01T12:08:12;16.30;;;6.80;;
23496;SDS011;11925;48.122;11.560;2023-08-01T12:10:42;14.18;;;6.38;;
23496;SDS011;11925;48.122;11.560;2023-08-01T12:13:20;10.48;;;5.53;;
23496;SDS011;11925;48.122;11.560;2023-08-01T12:15:49;8.88;;;4.03;;
23496;SDS011;11925;48.122;11.560;2023-08-01T12:18:23;8.25;;;3.70;;
23496;SDS011;11925;48.122;11.560;2023-08-01T12:20:55;9.68;;;3.40;;
23496;SDS011;11925;48.122;11.560;2023-08-01T12:23:23;8.90;;;3.75;;
23496;SDS011;11925;48.122;11.560;2023-08-01T12:25:52;6.07;;;2.65;;
23496;SDS011;11925;48.122;11.560;2023-08-01T12:28:21;6.22;;;2.55;;
23496;SDS011;11925;48.122;11.560;2023-08-01T12:30:49;7.88;;;2.35;;
23496;SDS011;11925;48.122;11.560;2023-08-01T12:33:19;3.70;;;2.20;;
23496;SDS011;11925;48.122;11.560;2023-08-01T12:35:51;4.20;;;2.30;;
23496;SDS011;11925;48.122;11.560;2023-08-01T12:38:19;5.55;;;2.20;;
23496;SDS011;11925;48.122;11.560;2023-08-01T12:40:48;3.95;;;2.20;;
23496;SDS011;11925;48.122;11.560;2023-08-01T12:43:17;3.42;;;1.85;;
23496;SDS011;11925;48.122;11.560;2023-08-01T12:45:46;3.38;;;2.05;;
23496;SDS011;11925;48.122;11.560;2023-08-01T12:48:18;5.20;;;2.17;;
23496;SDS011;11925;48.122;11.560;2023-08-01T12:50:47;4.75;;;2.20;;
23496;SDS011;11925;48.122;11.560;2023-08-01T12:53:17;4.07;;;2.00;;
23496;SDS011;11925;48.122;11.560;2023-08-01T12:55:47;2.92;;;1.85;;
23496;SDS011;11925;48.122;11.560;2023-08-01T12:58:16;2.75;;;1.60;;
23496;SDS011;11925;48.122;11.560;2023-08-01T13:00:46;4.50;;;2.00;;
23496;SDS011;11925;48.122;11.560;2023-08-01T13:03:15;2.85;;;1.50;;
23496;SDS011;11925;48.122;11.560;2023-08-01T13:05:45;4.18;;;1.55;;
23496;SDS011;11925;48.122;11.560;2023-08-01T13:08:13;2.80;;;1.58;;
23496;SDS011;11925;48.122;11.560;2023-08-01T13:10:43;3.25;;;1.75;;
23496;SDS011;11925;48.122;11.560;2023-08-01T13:13:13;6.18;;;2.88;;
23496;SDS011;11925;48.122;11.560;2023-08-01T13:15:41;6.60;;;3.60;;
23496;SDS011;11925;48.122;11.560;2023-08-01T13:18:10;8.55;;;4.25;;
23496;SDS011;11925;48.122;11.560;2023-08-01T13:20:39;6.28;;;3.55;;
23496;SDS011;11925;48.122;11.560;2023-08-01T13:23:08;6.78;;;3.60;;
23496;SDS011;11925;48.122;11.560;2023-08-01T13:25:37;4.10;;;2.70;;
23496;SDS011;11925;48.122;11.560;2023-08-01T13:28:07;5.38;;;2.55;;
23496;SDS011;11925;48.122;11.560;2023-08-01T13:30:36;3.30;;;2.05;;
23496;SDS011;11925;48.122;11.560;2023-08-01T13:33:04;4.60;;;2.20;;
23496;SDS011;11925;48.122;11.560;2023-08-01T13:35:33;5.05;;;2.22;;
23496;SDS011;11925;48.122;11.560;2023-08-01T13:38:02;3.97;;;1.90;;
23496;SDS011;11925;48.122;11.560;2023-08-01T13:40:31;3.65;;;2.03;;
23496;SDS011;11925;48.122;11.560;2023-08-01T13:43:01;3.00;;;2.03;;
23496;SDS011;11925;48.122;11.560;2023-08-01T13:45:31;3.85;;;2.00;;
23496;SDS011;11925;48.122;11.560;2023-08-01T13:48:01;4.50;;;2.05;;
23496;SDS011;11925;48.122;11.560;2023-08-01T13:50:29;3.65;;;1.98;;
23496;SDS011;11925;48.122;11.560;2023-08-01T13:52:58;3.08;;;1.80;;
23496;SDS011;11925;48.122;11.560;2023-08-01T13:55:27;3.88;;;1.90;;
23496;SDS011;11925;48.122;11.560;2023-08-01T13:57:55;4.07;;;1.92;;
23496;SDS011;11925;48.122;11.560;2023-08-01T14:00:24;3.10;;;1.70;;
23496;SDS011;11925;48.122;11.560;2023-08-01T14:02:54;4.15;;;1.92;;
23496;SDS011;11925;48.122;11.560;2023-08-01T14:05:24;3.03;;;1.67;;
23496;SDS011;11925;48.122;11.560;2023-08-01T14:07:53;3.78;;;2.00;;
23496;SDS011;11925;48.122;11.560;2023-08-01T14:10:23;3.53;;;2.00;;
23496;SDS011;11925;48.122;11.560;2023-08-01T14:12:51;4.00;;;1.90;;
23496;SDS011;11925;48.122;11.560;2023-08-01T14:15:20;3.33;;;1.58;;
23496;SDS011;11925;48.122;11.560;2023-08-01T14:17:49;3.67;;;1.90;;
23496;SDS011;11925;48.122;11.560;2023-08-01T14:20:20;5.80;;;2.13;;
23496;SDS011;11925;48.122;11.560;2023-08-01T14:22:49;3.20;;;1.70;;
23496;SDS011;11925;48.122;11.560;2023-08-01T14:25:18;3.40;;;2.00;;
23496;SDS011;11925;48.122;11.560;2023-08-01T14:27:47;3.67;;;1.90;;
23496;SDS011;11925;48.122;11.560;2023-08-01T14:30:16;6.55;;;3.60;;
23496;SDS011;11925;48.122;11.560;2023-08-01T14:32:46;6.60;;;3.15;;
23496;SDS011;11925;48.122;11.560;2023-08-01T14:35:15;6.80;;;2.92;;
23496;SDS011;11925;48.122;11.560;2023-08-01T14:37:45;4.97;;;2.30;;
23496;SDS011;11925;48.122;11.560;2023-08-01T14:40:15;3.83;;;2.08;;
23496;SDS011;11925;48.122;11.560;2023-08-01T14:42:43;4.22;;;2.30;;
23496;SDS011;11925;48.122;11.560;2023-08-01T14:45:12;4.40;;;1.83;;
23496;SDS011;11925;48.122;11.560;2023-08-01T14:47:41;4.32;;;1.75;;